createdAt,value
2023-02-17T00:03:12.489Z,98610.81
2023-02-17T00:07:16.190Z,98621.94
2023-02-17T00:11:31.005Z,98624.19
2023-02-17T00:15:34.383Z,98619.59
2023-02-17T00:19:37.394Z,98615.75
2023-02-17T00:23:40.781Z,98606.03
2023-02-17T00:27:45.460Z,98610.53
2023-02-17T00:31:49.315Z,98611.84
2023-02-17T00:35:52.537Z,98606.34
2023-02-17T00:39:55.836Z,98605.13
2023-02-17T00:44:00.869Z,98608.25
2023-02-17T00:48:05.141Z,98607.13
2023-02-17T00:52:08.328Z,98608.72
2023-02-17T00:56:12.060Z,98606.78
2023-02-17T01:00:18.230Z,98617.91
2023-02-17T01:04:21.864Z,98615.34
2023-02-17T01:08:25.907Z,98621.31
2023-02-17T01:12:29.466Z,98611.03
2023-02-17T01:16:35.962Z,98599.03
2023-02-17T01:20:40.612Z,98599.97
2023-02-17T01:24:44.126Z,98604.19
2023-02-17T01:28:48.850Z,98583.59
2023-02-17T01:32:53.527Z,98589.50
2023-02-17T01:36:56.936Z,98600.72
2023-02-17T01:41:00.463Z,98585.28
2023-02-17T01:45:34.419Z,98580.94
2023-02-17T01:49:42.370Z,98578.25
2023-02-17T01:53:52.438Z,98565.28
2023-02-17T01:57:59.244Z,98578.06
2023-02-17T02:02:06.940Z,98564.28
2023-02-17T02:06:16.293Z,98569.16
2023-02-17T02:10:20.447Z,98558.84
2023-02-17T02:14:24.573Z,98557.94
2023-02-17T02:18:50.902Z,98550.94
2023-02-17T02:23:23.434Z,98536.31
2023-02-17T02:27:53.336Z,98541.38
2023-02-17T02:32:10.900Z,98531.16
2023-02-17T02:36:21.981Z,98548.16
2023-02-17T02:40:28.920Z,98544.75
2023-02-17T02:44:32.616Z,98548.25
2023-02-17T02:48:37.394Z,98515.69
2023-02-17T02:52:49.800Z,98514.69
2023-02-17T02:57:19.291Z,98502.72
2023-02-17T03:01:28.520Z,98513.94
2023-02-17T03:05:39.897Z,98522.88
2023-02-17T03:09:44.562Z,98525.34
2023-02-17T03:13:47.571Z,98518.47
2023-02-17T03:17:51.485Z,98511.34
2023-02-17T03:21:58.476Z,98546.63
2023-02-17T03:26:03.736Z,98527.66
2023-02-17T03:30:09.191Z,98541.28
2023-02-17T03:34:12.390Z,98523.94
2023-02-17T03:38:16.519Z,98534.91
2023-02-17T03:42:21.649Z,98539.03
2023-02-17T03:46:24.954Z,98531.22
2023-02-17T03:50:28.550Z,98525.22
2023-02-17T03:54:31.614Z,98522.03
2023-02-17T03:58:38.715Z,98515.75
2023-02-17T04:02:44.083Z,98516.88
2023-02-17T04:06:47.975Z,98529.75
2023-02-17T04:10:54.267Z,98534.06
2023-02-17T04:14:59.133Z,98528.81
2023-02-17T04:19:02.556Z,98527.09
2023-02-17T04:23:06.209Z,98523.47
2023-02-17T04:27:09.376Z,98513.09
2023-02-17T04:31:14.973Z,98512.88
2023-02-17T04:35:18.219Z,98504.41
2023-02-17T04:39:21.729Z,98499.16
2023-02-17T04:43:25.108Z,98487.97
2023-02-17T04:47:30.324Z,98496.31
2023-02-17T04:51:33.351Z,98492.78
2023-02-17T04:55:37.049Z,98478.47
2023-02-17T04:59:40.402Z,98470.03
2023-02-17T05:03:45.299Z,98462.47
2023-02-17T05:07:48.845Z,98461.75
2023-02-17T05:11:52.289Z,98457.63
2023-02-17T05:15:55.504Z,98452.38
2023-02-17T05:20:00.718Z,98451.88
2023-02-17T05:24:04.177Z,98457.47
2023-02-17T05:28:07.810Z,98455.84
2023-02-17T05:32:11.190Z,98463.69
2023-02-17T05:36:16.734Z,98465.59
2023-02-17T05:40:20.174Z,98458.38
2023-02-17T05:44:23.869Z,98455.50
2023-02-17T05:48:26.880Z,98451.56
2023-02-17T05:52:31.878Z,98455.38
2023-02-17T05:56:34.938Z,98462.31
2023-02-17T06:00:38.678Z,98465.72
2023-02-17T06:04:41.791Z,98473.44
2023-02-17T06:08:46.565Z,98471.59
2023-02-17T06:12:49.683Z,98476.97
2023-02-17T06:16:54.226Z,98460.25
2023-02-17T06:20:57.961Z,98452.59
2023-02-17T06:25:02.834Z,98457.06
2023-02-17T06:29:30.512Z,98450.78
2023-02-17T06:33:34.760Z,98447.78
2023-02-17T06:37:38.313Z,98451.63
2023-02-17T06:41:44.959Z,98441.09
2023-02-17T06:45:48.213Z,98439.94
2023-02-17T06:49:53.012Z,98427.59
2023-02-17T06:53:56.333Z,98440.06
2023-02-17T06:58:02.323Z,98456.78
2023-02-17T07:02:05.828Z,98463.19
2023-02-17T07:06:09.515Z,98464.00
2023-02-17T07:10:13.453Z,98438.06
2023-02-17T07:14:18.692Z,98450.41
2023-02-17T07:18:21.850Z,98444.47
2023-02-17T07:22:27.369Z,98443.41
2023-02-17T07:26:30.578Z,98450.84
2023-02-17T07:30:39.214Z,98440.34
2023-02-17T07:34:42.547Z,98434.59
2023-02-17T07:38:46.145Z,98443.72
2023-02-17T07:42:49.556Z,98435.84
2023-02-17T07:46:54.735Z,98430.19
2023-02-17T07:50:58.338Z,98421.63
2023-02-17T07:55:01.708Z,98427.44
2023-02-17T07:59:04.930Z,98403.75
2023-02-17T08:03:10.848Z,98411.69
2023-02-17T08:07:14.192Z,98435.78
2023-02-17T08:11:35.916Z,98433.28
2023-02-17T08:15:38.903Z,98434.75
2023-02-17T08:19:48.468Z,98445.28
2023-02-17T08:23:52.739Z,98466.81
2023-02-17T08:27:56.663Z,98464.47
2023-02-17T08:32:00.051Z,98471.13
2023-02-17T08:36:10.349Z,98471.13
2023-02-17T08:40:13.695Z,98459.41
2023-02-17T08:44:19.396Z,98472.06
2023-02-17T08:48:22.827Z,98486.31
2023-02-17T08:52:27.572Z,98470.41
2023-02-17T08:56:31.381Z,98466.00
2023-02-17T09:00:35.735Z,98456.47
2023-02-17T09:04:39.962Z,98463.22
2023-02-17T09:08:45.969Z,98464.50
2023-02-17T09:12:48.864Z,98452.72
2023-02-17T09:16:52.494Z,98433.09
2023-02-17T09:20:56.655Z,98434.22
2023-02-17T09:25:01.228Z,98437.16
2023-02-17T09:29:05.324Z,98434.66
2023-02-17T09:33:08.828Z,98430.34
2023-02-17T09:37:13.697Z,98436.19
2023-02-17T09:41:23.967Z,98439.53
2023-02-17T09:45:31.492Z,98433.50
2023-02-17T09:49:40.502Z,98444.28
2023-02-17T09:53:49.976Z,98448.25
2023-02-17T09:58:00.581Z,98446.53
2023-02-17T10:02:09.555Z,98439.88
2023-02-17T10:06:17.670Z,98446.44
2023-02-17T10:10:24.544Z,98444.63
2023-02-17T10:14:32.891Z,98437.28
2023-02-17T10:18:40.829Z,98447.94
2023-02-17T10:22:49.142Z,98438.00
2023-02-17T10:27:05.961Z,98449.31
2023-02-17T10:31:14.531Z,98444.94
2023-02-17T10:35:19.351Z,98453.13
2023-02-17T10:39:42.439Z,98440.53
2023-02-17T10:43:46.295Z,98457.84
2023-02-17T10:47:52.766Z,98453.88
2023-02-17T10:51:56.154Z,98441.69
2023-02-17T10:56:05.228Z,98428.75
2023-02-17T11:00:16.749Z,98421.50
2023-02-17T11:04:21.723Z,98409.91
2023-02-17T11:08:36.564Z,98390.66
2023-02-17T11:12:42.862Z,98385.41
2023-02-17T11:16:48.403Z,98391.44
2023-02-17T11:21:02.578Z,98385.59
2023-02-17T11:25:09.496Z,98365.19
2023-02-17T11:29:18.617Z,98365.88
2023-02-17T11:33:24.272Z,98357.56
2023-02-17T11:37:32.341Z,98351.69
2023-02-17T11:41:41.286Z,98333.72
2023-02-17T11:45:51.874Z,98331.75
2023-02-17T11:50:20.688Z,98327.69
2023-02-17T11:54:37.694Z,98314.72
2023-02-17T11:59:02.851Z,98301.44
2023-02-17T12:03:44.597Z,98307.19
2023-02-17T12:08:03.520Z,98298.88
2023-02-17T12:12:18.348Z,98299.88
2023-02-17T12:16:35.855Z,98291.47
2023-02-17T12:20:50.205Z,98295.75
2023-02-17T12:25:24.622Z,98295.09
2023-02-17T12:29:44.023Z,98274.63
2023-02-17T12:33:58.691Z,98269.88
2023-02-17T12:38:09.316Z,98251.84
2023-02-17T12:42:19.673Z,98249.25
2023-02-17T12:46:30.358Z,98252.34
2023-02-17T12:50:39.026Z,98248.25
2023-02-17T12:54:47.207Z,98234.19
2023-02-17T12:58:52.880Z,98235.00
2023-02-17T13:03:01.509Z,98224.63
2023-02-17T13:07:13.452Z,98211.16
2023-02-17T13:11:30.166Z,98206.84
2023-02-17T13:15:37.323Z,98212.53
2023-02-17T13:19:42.557Z,98218.22
2023-02-17T13:23:48.117Z,98203.25
2023-02-17T13:27:51.412Z,98195.81
2023-02-17T13:31:58.016Z,98190.56
2023-02-17T13:36:14.304Z,98198.09
2023-02-17T13:40:39.457Z,98197.31
2023-02-17T13:44:43.206Z,98190.41
2023-02-17T13:48:46.621Z,98190.91
2023-02-17T13:52:51.660Z,98185.38
2023-02-17T13:56:56.266Z,98187.69
2023-02-17T14:01:01.171Z,98186.41
2023-02-17T14:05:17.932Z,98179.19
2023-02-17T14:09:36.231Z,98176.25
2023-02-17T14:13:41.810Z,98179.66
2023-02-17T14:17:45.249Z,98177.53
2023-02-17T14:22:01.377Z,98184.69
2023-02-17T14:26:14.247Z,98187.59
2023-02-17T14:30:28.651Z,98190.38
2023-02-17T14:34:35.589Z,98186.09
2023-02-17T14:38:42.068Z,98189.25
2023-02-17T14:42:47.828Z,98193.38
2023-02-17T14:50:54.495Z,98190.63
2023-02-17T14:55:00.628Z,98195.56
2023-02-17T14:59:05.894Z,98191.84
2023-02-17T15:03:09.292Z,98191.38
2023-02-17T15:07:16.530Z,98182.03
2023-02-17T15:11:23.100Z,98172.06
2023-02-17T15:15:27.935Z,98173.56
2023-02-17T15:19:31.136Z,98183.94
2023-02-17T15:23:36.500Z,98189.22
2023-02-17T15:27:39.396Z,98192.34
2023-02-17T15:31:44.560Z,98198.97
2023-02-17T15:35:49.259Z,98206.34
2023-02-17T15:39:52.885Z,98200.31
2023-02-17T15:43:58.227Z,98206.19
2023-02-17T15:48:06.624Z,98221.59
2023-02-17T15:52:13.932Z,98228.63
2023-02-17T15:56:21.462Z,98215.56
2023-02-17T16:00:27.415Z,98207.72
2023-02-17T16:04:32.320Z,98205.44
2023-02-17T16:08:35.322Z,98209.00
2023-02-17T16:12:39.444Z,98210.50
2023-02-17T16:16:43.530Z,98208.53
2023-02-17T16:20:48.434Z,98212.97
2023-02-17T16:24:51.311Z,98217.53
2023-02-17T16:28:55.018Z,98206.09
2023-02-17T16:32:58.362Z,98211.81
2023-02-17T16:37:05.109Z,98223.44
2023-02-17T16:41:08.535Z,98227.38
2023-02-17T16:45:20.848Z,98228.31
2023-02-17T16:49:32.568Z,98230.94
2023-02-17T16:53:37.878Z,98230.16
2023-02-17T16:57:42.409Z,98219.16
2023-02-17T17:01:46.484Z,98212.31
2023-02-17T17:05:49.942Z,98208.03
2023-02-17T17:10:55.649Z,98211.31
2023-02-17T17:14:59.972Z,98211.13
2023-02-17T17:19:03.854Z,98209.00
2023-02-17T17:23:09.514Z,98217.19
2023-02-17T17:27:12.985Z,98217.53
2023-02-17T17:31:18.243Z,98210.00
2023-02-17T17:35:21.927Z,98217.00
2023-02-17T17:39:25.606Z,98209.66
2023-02-17T17:43:28.911Z,98207.34
2023-02-17T17:47:33.528Z,98203.78
2023-02-17T17:51:36.840Z,98195.94
2023-02-17T17:55:40.673Z,98181.47
2023-02-17T17:59:43.801Z,98182.63
2023-02-17T18:03:49.643Z,98187.38
2023-02-17T18:07:53.175Z,98184.09
2023-02-17T18:11:57.603Z,98174.63
2023-02-17T18:16:00.839Z,98166.75
2023-02-17T18:20:06.967Z,98157.59
2023-02-17T18:24:11.269Z,98157.75
2023-02-17T18:28:14.409Z,98152.06
2023-02-17T18:32:17.567Z,98153.84
2023-02-17T18:36:25.397Z,98149.09
2023-02-17T18:40:29.619Z,98140.09
2023-02-17T18:44:32.492Z,98133.41
2023-02-17T18:48:35.580Z,98115.75
2023-02-17T18:52:40.785Z,98111.97
2023-02-17T18:56:43.737Z,98102.84
2023-02-17T19:00:47.348Z,98106.28
2023-02-17T19:04:53.469Z,98094.84
2023-02-17T19:08:58.131Z,98101.88
2023-02-17T19:13:02.373Z,98091.75
2023-02-17T19:17:05.950Z,98095.69
2023-02-17T19:21:09.879Z,98095.53
2023-02-17T19:25:14.425Z,98102.84
2023-02-17T19:29:17.848Z,98106.94
2023-02-17T19:33:21.675Z,98109.56
2023-02-17T19:37:24.859Z,98103.34
2023-02-17T19:41:30.093Z,98098.28
2023-02-17T19:45:33.417Z,98106.75
2023-02-17T19:49:36.982Z,98114.44
2023-02-17T19:53:41.268Z,98123.78
2023-02-17T19:57:45.999Z,98125.41
2023-02-17T20:01:49.721Z,98138.31
2023-02-17T20:05:53.282Z,98147.63
2023-02-17T20:15:26.641Z,98151.06
2023-02-17T20:19:30.380Z,98159.38
2023-02-17T20:23:34.909Z,98156.63
2023-02-17T20:27:38.602Z,98155.81
2023-02-17T20:31:43.865Z,98165.47
2023-02-17T20:35:47.141Z,98164.03
2023-02-17T20:39:50.716Z,98164.19
2023-02-17T20:43:54.172Z,98155.22
2023-02-17T20:47:59.220Z,98150.78
2023-02-17T20:52:02.598Z,98140.03
2023-02-17T20:56:13.299Z,98124.81
2023-02-17T21:00:21.486Z,98125.94
2023-02-17T21:04:32.520Z,98132.97
2023-02-17T21:08:35.438Z,98126.13
2023-02-17T21:12:38.827Z,98129.03
2023-02-17T21:16:42.956Z,98126.44
2023-02-17T21:20:47.535Z,98124.63
2023-02-17T21:24:50.885Z,98118.75
2023-02-17T21:28:55.515Z,98134.75
2023-02-17T21:32:58.621Z,98138.63
2023-02-17T21:37:03.439Z,98129.63
2023-02-17T21:41:08.216Z,98127.13
2023-02-17T21:45:11.775Z,98140.84
2023-02-17T21:49:15.827Z,98146.53
2023-02-17T21:53:20.625Z,98146.56
2023-02-17T21:57:25.757Z,98137.84
2023-02-17T22:01:30.181Z,98167.97
2023-02-17T22:05:33.485Z,98165.97
2023-02-17T22:09:38.407Z,98186.59
2023-02-17T22:13:41.687Z,98177.72
2023-02-17T22:17:44.623Z,98174.78
2023-02-17T22:21:48.601Z,98175.38
2023-02-17T22:25:53.133Z,98171.41
2023-02-17T22:29:56.853Z,98181.22
2023-02-17T22:34:02.842Z,98190.72
2023-02-17T22:38:05.697Z,98199.25
2023-02-17T22:42:10.603Z,98190.88
2023-02-17T22:46:16.645Z,98194.13
2023-02-17T22:50:19.946Z,98201.81
2023-02-17T22:54:23.124Z,98196.09
2023-02-17T22:58:28.410Z,98220.50
2023-02-17T23:02:35.656Z,98206.59
2023-02-17T23:06:39.499Z,98202.16
2023-02-17T23:10:42.589Z,98189.88
2023-02-17T23:14:47.399Z,98187.47
2023-02-17T23:18:50.831Z,98200.25
2023-02-17T23:22:54.236Z,98200.91
2023-02-17T23:27:00.341Z,98211.41
2023-02-17T23:31:05.134Z,98211.56
2023-02-17T23:35:08.480Z,98219.28
2023-02-17T23:39:12.477Z,98215.56
2023-02-17T23:43:15.777Z,98219.69
2023-02-17T23:47:20.630Z,98228.88
2023-02-17T23:51:24.284Z,98226.09
2023-02-17T23:55:27.505Z,98229.50
2023-02-17T23:59:30.741Z,98226.88
